sensor_id;sensor_type;location;lat;lon;timestamp;P1;durP1;ratioP1;P2;durP2;ratioP2
59512;SDS011;45330;51.634;5.562;2023-05-10T00:01:39;29.25;;;14.00;;
59512;SDS011;45330;51.634;5.562;2023-05-10T00:04:05;30.33;;;14.35;;
59512;SDS011;45330;51.634;5.562;2023-05-10T00:06:30;29.08;;;14.40;;
59512;SDS011;45330;51.634;5.562;2023-05-10T00:08:56;32.20;;;15.55;;
59512;SDS011;45330;51.634;5.562;2023-05-10T00:11:22;31.60;;;16.13;;
59512;SDS011;45330;51.634;5.562;2023-05-10T00:13:47;34.00;;;16.60;;
59512;SDS011;45330;51.634;5.562;2023-05-10T00:16:13;35.92;;;17.00;;
59512;SDS011;45330;51.634;5.562;2023-05-10T00:18:38;33.47;;;16.73;;
59512;SDS011;45330;51.634;5.562;2023-05-10T00:21:04;37.75;;;19.13;;
59512;SDS011;45330;51.634;5.562;2023-05-10T00:23:30;39.05;;;19.00;;
59512;SDS011;45330;51.634;5.562;2023-05-10T00:25:55;37.20;;;19.17;;
59512;SDS011;45330;51.634;5.562;2023-05-10T00:28:21;42.13;;;20.58;;
59512;SDS011;45330;51.634;5.562;2023-05-10T00:30:46;42.35;;;20.23;;
59512;SDS011;45330;51.634;5.562;2023-05-10T00:33:12;43.17;;;21.42;;
59512;SDS011;45330;51.634;5.562;2023-05-10T00:35:37;40.50;;;20.90;;
59512;SDS011;45330;51.634;5.562;2023-05-10T00:38:03;42.63;;;21.60;;
59512;SDS011;45330;51.634;5.562;2023-05-10T00:40:29;41.50;;;20.98;;
59512;SDS011;45330;51.634;5.562;2023-05-10T00:42:55;43.38;;;22.30;;
59512;SDS011;45330;51.634;5.562;2023-05-10T00:45:21;43.83;;;22.20;;
59512;SDS011;45330;51.634;5.562;2023-05-10T00:47:47;47.70;;;23.38;;
59512;SDS011;45330;51.634;5.562;2023-05-10T00:50:13;43.00;;;22.27;;
59512;SDS011;45330;51.634;5.562;2023-05-10T00:52:39;43.53;;;23.15;;
59512;SDS011;45330;51.634;5.562;2023-05-10T00:55:05;45.83;;;23.15;;
59512;SDS011;45330;51.634;5.562;2023-05-10T00:57:31;45.08;;;23.45;;
59512;SDS011;45330;51.634;5.562;2023-05-10T00:59:57;44.83;;;23.05;;
59512;SDS011;45330;51.634;5.562;2023-05-10T01:02:23;48.17;;;24.45;;
59512;SDS011;45330;51.634;5.562;2023-05-10T01:04:49;52.45;;;24.63;;
59512;SDS011;45330;51.634;5.562;2023-05-10T01:07:15;48.88;;;24.33;;
59512;SDS011;45330;51.634;5.562;2023-05-10T01:09:40;47.97;;;26.30;;
59512;SDS011;45330;51.634;5.562;2023-05-10T01:12:06;49.50;;;23.95;;
59512;SDS011;45330;51.634;5.562;2023-05-10T01:14:32;51.33;;;26.00;;
59512;SDS011;45330;51.634;5.562;2023-05-10T01:16:58;50.88;;;27.70;;
59512;SDS011;45330;51.634;5.562;2023-05-10T01:19:26;54.97;;;27.33;;
59512;SDS011;45330;51.634;5.562;2023-05-10T01:32:35;54.60;;;29.35;;
59512;SDS011;45330;51.634;5.562;2023-05-10T01:35:10;58.20;;;30.77;;
59512;SDS011;45330;51.634;5.562;2023-05-10T01:40:13;58.40;;;31.77;;
59512;SDS011;45330;51.634;5.562;2023-05-10T01:43:00;63.28;;;32.45;;
59512;SDS011;45330;51.634;5.562;2023-05-10T01:48:05;69.40;;;33.75;;
59512;SDS011;45330;51.634;5.562;2023-05-10T01:50:34;60.00;;;31.95;;
59512;SDS011;45330;51.634;5.562;2023-05-10T01:53:02;68.13;;;34.13;;
59512;SDS011;45330;51.634;5.562;2023-05-10T01:55:32;65.80;;;33.72;;
59512;SDS011;45330;51.634;5.562;2023-05-10T01:58:04;73.20;;;34.03;;
59512;SDS011;45330;51.634;5.562;2023-05-10T02:00:42;81.07;;;35.47;;
59512;SDS011;45330;51.634;5.562;2023-05-10T02:03:09;84.90;;;38.97;;
59512;SDS011;45330;51.634;5.562;2023-05-10T02:05:36;94.70;;;39.45;;
59512;SDS011;45330;51.634;5.562;2023-05-10T02:08:03;84.97;;;37.67;;
59512;SDS011;45330;51.634;5.562;2023-05-10T02:10:32;87.47;;;37.72;;
59512;SDS011;45330;51.634;5.562;2023-05-10T02:12:59;91.00;;;39.35;;
59512;SDS011;45330;51.634;5.562;2023-05-10T02:15:26;89.07;;;38.53;;
59512;SDS011;45330;51.634;5.562;2023-05-10T02:17:52;86.72;;;38.35;;
59512;SDS011;45330;51.634;5.562;2023-05-10T02:20:20;96.10;;;40.28;;
59512;SDS011;45330;51.634;5.562;2023-05-10T02:22:48;96.57;;;39.83;;
59512;SDS011;45330;51.634;5.562;2023-05-10T02:25:15;100.43;;;41.10;;
59512;SDS011;45330;51.634;5.562;2023-05-10T02:27:44;93.70;;;39.17;;
59512;SDS011;45330;51.634;5.562;2023-05-10T02:30:11;94.68;;;40.22;;
59512;SDS011;45330;51.634;5.562;2023-05-10T02:32:37;98.43;;;40.63;;
59512;SDS011;45330;51.634;5.562;2023-05-10T02:35:04;95.32;;;39.40;;
59512;SDS011;45330;51.634;5.562;2023-05-10T02:37:31;95.07;;;40.80;;
59512;SDS011;45330;51.634;5.562;2023-05-10T02:39:58;93.35;;;40.78;;
59512;SDS011;45330;51.634;5.562;2023-05-10T02:42:24;92.70;;;40.03;;
59512;SDS011;45330;51.634;5.562;2023-05-10T02:44:53;91.63;;;40.53;;
59512;SDS011;45330;51.634;5.562;2023-05-10T02:47:24;93.75;;;41.72;;
59512;SDS011;45330;51.634;5.562;2023-05-10T02:49:50;91.82;;;41.75;;
59512;SDS011;45330;51.634;5.562;2023-05-10T02:52:16;90.47;;;40.00;;
59512;SDS011;45330;51.634;5.562;2023-05-10T02:54:50;92.88;;;41.80;;
59512;SDS011;45330;51.634;5.562;2023-05-10T02:57:22;87.63;;;41.85;;
59512;SDS011;45330;51.634;5.562;2023-05-10T02:59:55;82.90;;;39.90;;
59512;SDS011;45330;51.634;5.562;2023-05-10T03:02:20;82.70;;;40.00;;
59512;SDS011;45330;51.634;5.562;2023-05-10T03:04:46;76.70;;;38.40;;
59512;SDS011;45330;51.634;5.562;2023-05-10T03:07:11;77.03;;;38.60;;
59512;SDS011;45330;51.634;5.562;2023-05-10T03:09:38;81.35;;;38.85;;
59512;SDS011;45330;51.634;5.562;2023-05-10T03:12:11;80.85;;;40.08;;
59512;SDS011;45330;51.634;5.562;2023-05-10T03:19:55;79.90;;;40.50;;
59512;SDS011;45330;51.634;5.562;2023-05-10T03:22:32;83.60;;;41.85;;
59512;SDS011;45330;51.634;5.562;2023-05-10T03:25:04;86.05;;;42.80;;
59512;SDS011;45330;51.634;5.562;2023-05-10T03:27:31;94.18;;;45.25;;
59512;SDS011;45330;51.634;5.562;2023-05-10T03:29:57;91.05;;;45.72;;
59512;SDS011;45330;51.634;5.562;2023-05-10T03:32:23;90.30;;;45.45;;
59512;SDS011;45330;51.634;5.562;2023-05-10T03:34:48;98.05;;;47.60;;
59512;SDS011;45330;51.634;5.562;2023-05-10T03:37:13;95.88;;;46.20;;
59512;SDS011;45330;51.634;5.562;2023-05-10T03:39:39;99.30;;;47.03;;
59512;SDS011;45330;51.634;5.562;2023-05-10T03:42:04;95.72;;;47.95;;
59512;SDS011;45330;51.634;5.562;2023-05-10T03:44:30;97.25;;;47.13;;
59512;SDS011;45330;51.634;5.562;2023-05-10T03:46:56;98.03;;;47.67;;
59512;SDS011;45330;51.634;5.562;2023-05-10T03:49:22;96.45;;;47.90;;
59512;SDS011;45330;51.634;5.562;2023-05-10T03:51:47;92.95;;;47.17;;
59512;SDS011;45330;51.634;5.562;2023-05-10T03:54:13;90.88;;;47.70;;
59512;SDS011;45330;51.634;5.562;2023-05-10T03:56:38;86.38;;;45.13;;
59512;SDS011;45330;51.634;5.562;2023-05-10T03:59:03;90.63;;;44.80;;
59512;SDS011;45330;51.634;5.562;2023-05-10T04:01:32;86.28;;;45.13;;
59512;SDS011;45330;51.634;5.562;2023-05-10T04:03:58;90.20;;;44.50;;
59512;SDS011;45330;51.634;5.562;2023-05-10T04:06:24;86.28;;;43.78;;
59512;SDS011;45330;51.634;5.562;2023-05-10T04:08:49;89.45;;;45.53;;
59512;SDS011;45330;51.634;5.562;2023-05-10T04:11:14;80.53;;;43.08;;
59512;SDS011;45330;51.634;5.562;2023-05-10T04:13:40;82.13;;;42.85;;
59512;SDS011;45330;51.634;5.562;2023-05-10T04:16:05;78.78;;;41.72;;
59512;SDS011;45330;51.634;5.562;2023-05-10T04:18:31;72.32;;;38.70;;
59512;SDS011;45330;51.634;5.562;2023-05-10T04:20:56;69.70;;;37.92;;
59512;SDS011;45330;51.634;5.562;2023-05-10T04:23:22;67.22;;;36.67;;
59512;SDS011;45330;51.634;5.562;2023-05-10T04:25:48;71.43;;;36.63;;
59512;SDS011;45330;51.634;5.562;2023-05-10T04:28:13;63.67;;;33.33;;
59512;SDS011;45330;51.634;5.562;2023-05-10T04:30:40;62.92;;;32.22;;
59512;SDS011;45330;51.634;5.562;2023-05-10T04:33:05;59.20;;;30.95;;
59512;SDS011;45330;51.634;5.562;2023-05-10T04:35:31;59.20;;;32.05;;
59512;SDS011;45330;51.634;5.562;2023-05-10T04:37:56;58.67;;;29.63;;
59512;SDS011;45330;51.634;5.562;2023-05-10T04:40:21;58.45;;;29.77;;
59512;SDS011;45330;51.634;5.562;2023-05-10T04:42:47;52.70;;;29.05;;
59512;SDS011;45330;51.634;5.562;2023-05-10T04:45:12;57.78;;;29.30;;
59512;SDS011;45330;51.634;5.562;2023-05-10T04:47:39;57.15;;;30.17;;
59512;SDS011;45330;51.634;5.562;2023-05-10T04:50:05;57.20;;;30.20;;
59512;SDS011;45330;51.634;5.562;2023-05-10T04:52:31;59.45;;;30.98;;
59512;SDS011;45330;51.634;5.562;2023-05-10T04:54:57;58.53;;;31.73;;
59512;SDS011;45330;51.634;5.562;2023-05-10T04:57:22;59.25;;;32.63;;
59512;SDS011;45330;51.634;5.562;2023-05-10T04:59:47;60.58;;;31.25;;
59512;SDS011;45330;51.634;5.562;2023-05-10T05:02:13;67.55;;;31.40;;
59512;SDS011;45330;51.634;5.562;2023-05-10T05:04:38;54.85;;;30.27;;
59512;SDS011;45330;51.634;5.562;2023-05-10T05:07:04;57.53;;;30.88;;
59512;SDS011;45330;51.634;5.562;2023-05-10T05:09:29;57.85;;;31.05;;
59512;SDS011;45330;51.634;5.562;2023-05-10T05:11:56;53.47;;;28.75;;
59512;SDS011;45330;51.634;5.562;2023-05-10T05:14:22;51.38;;;28.15;;
59512;SDS011;45330;51.634;5.562;2023-05-10T05:16:50;51.20;;;27.88;;
59512;SDS011;45330;51.634;5.562;2023-05-10T05:19:15;48.40;;;27.85;;
59512;SDS011;45330;51.634;5.562;2023-05-10T05:21:41;46.42;;;25.83;;
59512;SDS011;45330;51.634;5.562;2023-05-10T05:24:06;51.58;;;28.85;;
59512;SDS011;45330;51.634;5.562;2023-05-10T05:26:32;48.50;;;26.92;;
59512;SDS011;45330;51.634;5.562;2023-05-10T05:28:58;45.47;;;27.33;;
59512;SDS011;45330;51.634;5.562;2023-05-10T05:31:23;46.58;;;26.55;;
59512;SDS011;45330;51.634;5.562;2023-05-10T05:33:49;47.67;;;26.98;;
59512;SDS011;45330;51.634;5.562;2023-05-10T05:36:14;46.13;;;26.90;;
59512;SDS011;45330;51.634;5.562;2023-05-10T05:38:39;42.75;;;25.60;;
59512;SDS011;45330;51.634;5.562;2023-05-10T05:41:05;42.50;;;25.25;;
59512;SDS011;45330;51.634;5.562;2023-05-10T05:43:30;44.97;;;26.35;;
59512;SDS011;45330;51.634;5.562;2023-05-10T05:45:56;39.72;;;24.60;;
59512;SDS011;45330;51.634;5.562;2023-05-10T05:48:22;38.63;;;24.63;;
59512;SDS011;45330;51.634;5.562;2023-05-10T05:50:48;38.60;;;25.42;;
59512;SDS011;45330;51.634;5.562;2023-05-10T05:53:14;37.15;;;24.17;;
59512;SDS011;45330;51.634;5.562;2023-05-10T05:55:39;37.22;;;24.63;;
59512;SDS011;45330;51.634;5.562;2023-05-10T05:58:05;34.00;;;23.67;;
59512;SDS011;45330;51.634;5.562;2023-05-10T06:00:30;38.20;;;24.27;;
59512;SDS011;45330;51.634;5.562;2023-05-10T06:02:56;40.05;;;23.83;;
59512;SDS011;45330;51.634;5.562;2023-05-10T06:05:22;35.35;;;22.98;;
59512;SDS011;45330;51.634;5.562;2023-05-10T06:07:47;34.90;;;23.90;;
59512;SDS011;45330;51.634;5.562;2023-05-10T06:10:12;33.65;;;22.23;;
59512;SDS011;45330;51.634;5.562;2023-05-10T06:12:38;35.35;;;22.58;;
59512;SDS011;45330;51.634;5.562;2023-05-10T06:15:04;34.58;;;22.10;;
59512;SDS011;45330;51.634;5.562;2023-05-10T06:17:30;36.63;;;23.58;;
59512;SDS011;45330;51.634;5.562;2023-05-10T06:19:55;34.30;;;22.13;;
59512;SDS011;45330;51.634;5.562;2023-05-10T06:22:21;34.60;;;22.33;;
59512;SDS011;45330;51.634;5.562;2023-05-10T06:24:49;33.42;;;22.48;;
59512;SDS011;45330;51.634;5.562;2023-05-10T06:27:14;35.75;;;21.67;;
59512;SDS011;45330;51.634;5.562;2023-05-10T06:29:40;34.78;;;21.80;;
59512;SDS011;45330;51.634;5.562;2023-05-10T06:32:05;36.28;;;22.60;;
59512;SDS011;45330;51.634;5.562;2023-05-10T06:34:31;34.30;;;22.55;;
59512;SDS011;45330;51.634;5.562;2023-05-10T06:36:56;35.28;;;22.17;;
59512;SDS011;45330;51.634;5.562;2023-05-10T06:39:22;35.92;;;22.38;;
59512;SDS011;45330;51.634;5.562;2023-05-10T06:41:47;36.58;;;22.08;;
59512;SDS011;45330;51.634;5.562;2023-05-10T06:44:12;36.58;;;23.15;;
59512;SDS011;45330;51.634;5.562;2023-05-10T06:46:38;37.40;;;24.58;;
59512;SDS011;45330;51.634;5.562;2023-05-10T06:49:03;34.78;;;23.08;;
59512;SDS011;45330;51.634;5.562;2023-05-10T06:51:29;36.28;;;23.35;;
59512;SDS011;45330;51.634;5.562;2023-05-10T06:53:54;37.25;;;24.23;;
59512;SDS011;45330;51.634;5.562;2023-05-10T06:56:20;34.75;;;23.85;;
59512;SDS011;45330;51.634;5.562;2023-05-10T06:58:46;37.38;;;24.42;;
59512;SDS011;45330;51.634;5.562;2023-05-10T07:01:14;36.50;;;23.83;;
59512;SDS011;45330;51.634;5.562;2023-05-10T07:03:40;37.33;;;23.92;;
59512;SDS011;45330;51.634;5.562;2023-05-10T07:06:05;35.72;;;23.63;;
59512;SDS011;45330;51.634;5.562;2023-05-10T07:08:32;36.85;;;22.75;;
59512;SDS011;45330;51.634;5.562;2023-05-10T07:10:59;36.22;;;23.73;;
59512;SDS011;45330;51.634;5.562;2023-05-10T07:13:25;37.83;;;23.58;;
59512;SDS011;45330;51.634;5.562;2023-05-10T07:15:51;33.67;;;23.02;;
59512;SDS011;45330;51.634;5.562;2023-05-10T07:18:16;36.80;;;23.88;;
59512;SDS011;45330;51.634;5.562;2023-05-10T07:20:41;35.58;;;22.75;;
59512;SDS011;45330;51.634;5.562;2023-05-10T07:23:07;33.38;;;22.10;;
59512;SDS011;45330;51.634;5.562;2023-05-10T07:25:32;34.22;;;21.83;;
59512;SDS011;45330;51.634;5.562;2023-05-10T07:27:57;35.20;;;23.60;;
59512;SDS011;45330;51.634;5.562;2023-05-10T07:30:23;35.45;;;22.83;;
59512;SDS011;45330;51.634;5.562;2023-05-10T07:32:49;34.53;;;23.23;;
59512;SDS011;45330;51.634;5.562;2023-05-10T07:35:14;33.05;;;23.05;;
59512;SDS011;45330;51.634;5.562;2023-05-10T07:37:39;36.10;;;24.90;;
59512;SDS011;45330;51.634;5.562;2023-05-10T07:40:05;36.55;;;25.27;;
59512;SDS011;45330;51.634;5.562;2023-05-10T07:42:31;36.35;;;24.50;;
59512;SDS011;45330;51.634;5.562;2023-05-10T07:44:56;35.10;;;24.55;;
59512;SDS011;45330;51.634;5.562;2023-05-10T07:47:22;38.13;;;25.73;;
59512;SDS011;45330;51.634;5.562;2023-05-10T07:49:48;36.00;;;23.20;;
59512;SDS011;45330;51.634;5.562;2023-05-10T07:52:13;36.30;;;22.50;;
59512;SDS011;45330;51.634;5.562;2023-05-10T07:54:39;34.25;;;21.92;;
59512;SDS011;45330;51.634;5.562;2023-05-10T07:57:04;34.20;;;22.63;;
59512;SDS011;45330;51.634;5.562;2023-05-10T07:59:30;35.78;;;21.92;;
59512;SDS011;45330;51.634;5.562;2023-05-10T08:01:55;36.05;;;23.70;;
59512;SDS011;45330;51.634;5.562;2023-05-10T08:04:21;36.08;;;23.42;;
59512;SDS011;45330;51.634;5.562;2023-05-10T08:06:47;36.13;;;23.17;;
59512;SDS011;45330;51.634;5.562;2023-05-10T08:09:12;34.33;;;21.35;;
59512;SDS011;45330;51.634;5.562;2023-05-10T08:11:38;32.97;;;22.27;;
59512;SDS011;45330;51.634;5.562;2023-05-10T08:14:04;33.13;;;22.88;;
59512;SDS011;45330;51.634;5.562;2023-05-10T08:16:29;32.13;;;22.08;;
59512;SDS011;45330;51.634;5.562;2023-05-10T08:18:54;31.95;;;22.20;;
59512;SDS011;45330;51.634;5.562;2023-05-10T08:21:20;33.63;;;21.98;;
59512;SDS011;45330;51.634;5.562;2023-05-10T08:23:45;33.47;;;22.27;;
59512;SDS011;45330;51.634;5.562;2023-05-10T08:26:11;31.52;;;20.63;;
59512;SDS011;45330;51.634;5.562;2023-05-10T08:28:36;33.90;;;21.63;;
59512;SDS011;45330;51.634;5.562;2023-05-10T08:31:01;32.03;;;20.25;;
59512;SDS011;45330;51.634;5.562;2023-05-10T08:33:27;30.73;;;20.02;;
59512;SDS011;45330;51.634;5.562;2023-05-10T08:35:52;31.98;;;20.05;;
59512;SDS011;45330;51.634;5.562;2023-05-10T08:38:18;28.70;;;18.55;;
59512;SDS011;45330;51.634;5.562;2023-05-10T08:40:43;28.10;;;18.77;;
59512;SDS011;45330;51.634;5.562;2023-05-10T08:43:10;29.15;;;17.98;;
59512;SDS011;45330;51.634;5.562;2023-05-10T08:45:37;29.85;;;17.05;;
59512;SDS011;45330;51.634;5.562;2023-05-10T08:48:13;28.65;;;16.52;;
59512;SDS011;45330;51.634;5.562;2023-05-10T08:50:41;26.08;;;16.27;;
59512;SDS011;45330;51.634;5.562;2023-05-10T08:53:11;25.50;;;14.93;;
59512;SDS011;45330;51.634;5.562;2023-05-10T08:55:38;26.77;;;16.17;;
59512;SDS011;45330;51.634;5.562;2023-05-10T08:58:05;26.35;;;15.95;;
59512;SDS011;45330;51.634;5.562;2023-05-10T09:00:31;25.25;;;14.93;;
59512;SDS011;45330;51.634;5.562;2023-05-10T09:02:58;24.90;;;15.63;;
59512;SDS011;45330;51.634;5.562;2023-05-10T09:05:24;25.30;;;15.40;;
59512;SDS011;45330;51.634;5.562;2023-05-10T09:07:49;24.90;;;15.77;;
59512;SDS011;45330;51.634;5.562;2023-05-10T09:10:15;25.05;;;14.98;;
59512;SDS011;45330;51.634;5.562;2023-05-10T09:12:41;25.90;;;14.98;;
59512;SDS011;45330;51.634;5.562;2023-05-10T09:15:07;25.55;;;14.02;;
59512;SDS011;45330;51.634;5.562;2023-05-10T09:17:34;24.33;;;13.43;;
59512;SDS011;45330;51.634;5.562;2023-05-10T09:20:00;23.60;;;13.70;;
59512;SDS011;45330;51.634;5.562;2023-05-10T09:22:27;23.90;;;14.07;;
59512;SDS011;45330;51.634;5.562;2023-05-10T09:27:41;22.70;;;13.13;;
59512;SDS011;45330;51.634;5.562;2023-05-10T09:30:10;23.88;;;13.35;;
59512;SDS011;45330;51.634;5.562;2023-05-10T09:32:41;24.20;;;12.90;;
59512;SDS011;45330;51.634;5.562;2023-05-10T09:37:39;22.45;;;11.98;;
59512;SDS011;45330;51.634;5.562;2023-05-10T09:40:11;22.50;;;10.70;;
59512;SDS011;45330;51.634;5.562;2023-05-10T09:42:37;22.10;;;12.00;;
59512;SDS011;45330;51.634;5.562;2023-05-10T09:45:04;22.65;;;12.10;;
59512;SDS011;45330;51.634;5.562;2023-05-10T09:47:33;21.35;;;11.93;;
59512;SDS011;45330;51.634;5.562;2023-05-10T09:50:00;24.58;;;11.80;;
59512;SDS011;45330;51.634;5.562;2023-05-10T09:52:30;22.38;;;11.68;;
59512;SDS011;45330;51.634;5.562;2023-05-10T09:54:56;20.60;;;11.40;;
59512;SDS011;45330;51.634;5.562;2023-05-10T09:57:21;20.92;;;10.93;;
59512;SDS011;45330;51.634;5.562;2023-05-10T09:59:48;23.13;;;10.55;;
59512;SDS011;45330;51.634;5.562;2023-05-10T10:02:14;20.85;;;10.13;;
59512;SDS011;45330;51.634;5.562;2023-05-10T10:04:40;21.27;;;9.13;;
59512;SDS011;45330;51.634;5.562;2023-05-10T10:07:05;20.30;;;9.18;;
59512;SDS011;45330;51.634;5.562;2023-05-10T10:09:32;19.33;;;9.13;;
59512;SDS011;45330;51.634;5.562;2023-05-10T10:11:59;18.25;;;8.15;;
59512;SDS011;45330;51.634;5.562;2023-05-10T10:14:25;19.67;;;8.60;;
59512;SDS011;45330;51.634;5.562;2023-05-10T10:16:51;20.25;;;9.30;;
59512;SDS011;45330;51.634;5.562;2023-05-10T10:19:20;20.50;;;8.88;;
59512;SDS011;45330;51.634;5.562;2023-05-10T10:21:47;18.35;;;7.95;;
59512;SDS011;45330;51.634;5.562;2023-05-10T10:24:13;19.00;;;9.27;;
59512;SDS011;45330;51.634;5.562;2023-05-10T10:26:39;20.40;;;9.07;;
59512;SDS011;45330;51.634;5.562;2023-05-10T10:31:41;17.77;;;7.68;;
59512;SDS011;45330;51.634;5.562;2023-05-10T10:34:10;18.17;;;7.75;;
59512;SDS011;45330;51.634;5.562;2023-05-10T10:36:45;18.98;;;8.35;;
59512;SDS011;45330;51.634;5.562;2023-05-10T10:39:12;21.37;;;9.77;;
59512;SDS011;45330;51.634;5.562;2023-05-10T10:41:39;20.73;;;10.27;;
59512;SDS011;45330;51.634;5.562;2023-05-10T10:46:59;19.90;;;10.57;;
59512;SDS011;45330;51.634;5.562;2023-05-10T10:49:27;19.17;;;9.47;;
59512;SDS011;45330;51.634;5.562;2023-05-10T10:55:05;19.15;;;9.77;;
59512;SDS011;45330;51.634;5.562;2023-05-10T11:02:44;21.33;;;10.50;;
59512;SDS011;45330;51.634;5.562;2023-05-10T11:06:01;19.55;;;10.32;;
59512;SDS011;45330;51.634;5.562;2023-05-10T11:13:27;22.40;;;12.13;;
59512;SDS011;45330;51.634;5.562;2023-05-10T11:15:53;22.60;;;12.52;;
59512;SDS011;45330;51.634;5.562;2023-05-10T11:18:20;23.10;;;12.95;;
59512;SDS011;45330;51.634;5.562;2023-05-10T11:20:52;25.30;;;14.48;;
59512;SDS011;45330;51.634;5.562;2023-05-10T11:23:22;23.77;;;14.40;;
59512;SDS011;45330;51.634;5.562;2023-05-10T11:25:48;24.38;;;14.80;;
59512;SDS011;45330;51.634;5.562;2023-05-10T11:28:16;25.42;;;15.45;;
59512;SDS011;45330;51.634;5.562;2023-05-10T11:30:44;26.55;;;15.45;;
59512;SDS011;45330;51.634;5.562;2023-05-10T11:33:09;26.02;;;14.63;;
59512;SDS011;45330;51.634;5.562;2023-05-10T11:35:41;26.63;;;15.73;;
59512;SDS011;45330;51.634;5.562;2023-05-10T11:38:07;26.15;;;15.13;;
59512;SDS011;45330;51.634;5.562;2023-05-10T11:40:33;26.50;;;15.30;;
59512;SDS011;45330;51.634;5.562;2023-05-10T11:42:59;25.40;;;15.18;;
59512;SDS011;45330;51.634;5.562;2023-05-10T11:45:25;24.10;;;14.73;;
59512;SDS011;45330;51.634;5.562;2023-05-10T11:47:51;24.65;;;14.63;;
59512;SDS011;45330;51.634;5.562;2023-05-10T11:50:17;26.45;;;16.20;;
59512;SDS011;45330;51.634;5.562;2023-05-10T11:52:42;24.98;;;15.77;;
59512;SDS011;45330;51.634;5.562;2023-05-10T11:55:08;25.17;;;14.88;;
59512;SDS011;45330;51.634;5.562;2023-05-10T11:57:34;24.92;;;14.48;;
59512;SDS011;45330;51.634;5.562;2023-05-10T12:00:00;24.98;;;15.13;;
59512;SDS011;45330;51.634;5.562;2023-05-10T12:02:28;23.85;;;13.35;;
59512;SDS011;45330;51.634;5.562;2023-05-10T12:04:55;21.75;;;12.38;;
59512;SDS011;45330;51.634;5.562;2023-05-10T12:07:20;20.23;;;11.43;;
59512;SDS011;45330;51.634;5.562;2023-05-10T12:12:40;20.60;;;10.73;;
59512;SDS011;45330;51.634;5.562;2023-05-10T12:15:10;22.02;;;12.45;;
59512;SDS011;45330;51.634;5.562;2023-05-10T12:17:46;21.70;;;12.07;;
59512;SDS011;45330;51.634;5.562;2023-05-10T12:20:19;22.80;;;12.48;;
59512;SDS011;45330;51.634;5.562;2023-05-10T12:22:49;21.90;;;11.45;;
59512;SDS011;45330;51.634;5.562;2023-05-10T12:25:17;23.80;;;12.75;;
59512;SDS011;45330;51.634;5.562;2023-05-10T12:27:53;23.17;;;12.82;;
59512;SDS011;45330;51.634;5.562;2023-05-10T12:30:24;21.05;;;11.70;;
59512;SDS011;45330;51.634;5.562;2023-05-10T12:32:51;23.83;;;12.27;;
59512;SDS011;45330;51.634;5.562;2023-05-10T12:35:18;21.42;;;12.18;;
59512;SDS011;45330;51.634;5.562;2023-05-10T12:37:48;21.02;;;12.13;;
59512;SDS011;45330;51.634;5.562;2023-05-10T12:40:15;24.38;;;13.43;;
59512;SDS011;45330;51.634;5.562;2023-05-10T12:42:40;22.80;;;13.02;;
59512;SDS011;45330;51.634;5.562;2023-05-10T12:45:06;23.90;;;14.68;;
59512;SDS011;45330;51.634;5.562;2023-05-10T12:47:33;26.95;;;15.05;;
59512;SDS011;45330;51.634;5.562;2023-05-10T12:49:59;27.13;;;16.02;;
59512;SDS011;45330;51.634;5.562;2023-05-10T12:52:26;24.90;;;15.02;;
59512;SDS011;45330;51.634;5.562;2023-05-10T12:54:52;23.90;;;13.20;;
59512;SDS011;45330;51.634;5.562;2023-05-10T12:57:20;21.13;;;11.60;;
59512;SDS011;45330;51.634;5.562;2023-05-10T12:59:45;22.20;;;11.95;;
59512;SDS011;45330;51.634;5.562;2023-05-10T13:02:11;23.20;;;12.77;;
59512;SDS011;45330;51.634;5.562;2023-05-10T13:04:36;22.65;;;12.90;;
59512;SDS011;45330;51.634;5.562;2023-05-10T13:07:05;19.50;;;9.35;;
59512;SDS011;45330;51.634;5.562;2023-05-10T13:09:31;19.33;;;9.18;;
59512;SDS011;45330;51.634;5.562;2023-05-10T13:11:56;21.67;;;9.95;;
59512;SDS011;45330;51.634;5.562;2023-05-10T13:14:22;21.48;;;10.70;;
59512;SDS011;45330;51.634;5.562;2023-05-10T13:16:47;21.10;;;8.65;;
59512;SDS011;45330;51.634;5.562;2023-05-10T13:19:13;19.80;;;8.98;;
59512;SDS011;45330;51.634;5.562;2023-05-10T13:21:39;18.33;;;7.85;;
59512;SDS011;45330;51.634;5.562;2023-05-10T13:24:06;16.17;;;6.97;;
59512;SDS011;45330;51.634;5.562;2023-05-10T13:26:31;17.35;;;7.63;;
59512;SDS011;45330;51.634;5.562;2023-05-10T13:28:57;19.05;;;8.13;;
59512;SDS011;45330;51.634;5.562;2023-05-10T13:31:22;20.33;;;9.93;;
59512;SDS011;45330;51.634;5.562;2023-05-10T13:33:48;20.83;;;10.55;;
59512;SDS011;45330;51.634;5.562;2023-05-10T13:36:13;20.65;;;10.88;;
59512;SDS011;45330;51.634;5.562;2023-05-10T13:38:39;22.20;;;13.75;;
59512;SDS011;45330;51.634;5.562;2023-05-10T13:41:04;20.90;;;12.02;;
59512;SDS011;45330;51.634;5.562;2023-05-10T13:43:29;20.90;;;10.38;;
59512;SDS011;45330;51.634;5.562;2023-05-10T13:45:55;18.05;;;9.30;;
59512;SDS011;45330;51.634;5.562;2023-05-10T13:48:20;21.30;;;9.68;;
59512;SDS011;45330;51.634;5.562;2023-05-10T13:50:46;18.67;;;10.02;;
59512;SDS011;45330;51.634;5.562;2023-05-10T13:53:12;20.98;;;10.23;;
59512;SDS011;45330;51.634;5.562;2023-05-10T13:55:37;23.63;;;11.60;;
59512;SDS011;45330;51.634;5.562;2023-05-10T13:58:03;19.35;;;10.13;;
59512;SDS011;45330;51.634;5.562;2023-05-10T14:00:28;19.08;;;10.88;;
59512;SDS011;45330;51.634;5.562;2023-05-10T14:02:54;20.15;;;10.57;;
59512;SDS011;45330;51.634;5.562;2023-05-10T14:05:19;18.42;;;10.07;;
59512;SDS011;45330;51.634;5.562;2023-05-10T14:07:45;19.30;;;10.65;;
59512;SDS011;45330;51.634;5.562;2023-05-10T14:10:11;20.00;;;10.50;;
59512;SDS011;45330;51.634;5.562;2023-05-10T14:12:36;19.67;;;10.75;;
59512;SDS011;45330;51.634;5.562;2023-05-10T14:15:02;20.10;;;12.07;;
59512;SDS011;45330;51.634;5.562;2023-05-10T14:17:27;21.15;;;11.38;;
59512;SDS011;45330;51.634;5.562;2023-05-10T14:19:53;20.88;;;12.30;;
59512;SDS011;45330;51.634;5.562;2023-05-10T14:22:18;20.77;;;10.93;;
59512;SDS011;45330;51.634;5.562;2023-05-10T14:24:44;20.98;;;12.07;;
59512;SDS011;45330;51.634;5.562;2023-05-10T14:27:12;20.17;;;11.43;;
59512;SDS011;45330;51.634;5.562;2023-05-10T14:29:37;21.30;;;11.90;;
59512;SDS011;45330;51.634;5.562;2023-05-10T14:32:03;20.25;;;11.95;;
59512;SDS011;45330;51.634;5.562;2023-05-10T14:34:28;20.65;;;11.85;;
59512;SDS011;45330;51.634;5.562;2023-05-10T14:36:53;20.77;;;12.65;;
59512;SDS011;45330;51.634;5.562;2023-05-10T14:39:20;21.17;;;12.82;;
59512;SDS011;45330;51.634;5.562;2023-05-10T14:41:45;19.67;;;11.10;;
59512;SDS011;45330;51.634;5.562;2023-05-10T14:44:12;20.92;;;12.02;;
59512;SDS011;45330;51.634;5.562;2023-05-10T14:46:37;20.63;;;11.85;;
59512;SDS011;45330;51.634;5.562;2023-05-10T14:49:03;22.50;;;11.68;;
59512;SDS011;45330;51.634;5.562;2023-05-10T14:51:28;20.05;;;11.85;;
59512;SDS011;45330;51.634;5.562;2023-05-10T14:53:54;21.85;;;11.88;;
59512;SDS011;45330;51.634;5.562;2023-05-10T14:56:20;21.85;;;12.57;;
59512;SDS011;45330;51.634;5.562;2023-05-10T14:58:46;21.40;;;12.82;;
59512;SDS011;45330;51.634;5.562;2023-05-10T15:01:11;20.50;;;11.90;;
59512;SDS011;45330;51.634;5.562;2023-05-10T15:03:36;21.83;;;12.63;;
59512;SDS011;45330;51.634;5.562;2023-05-10T15:06:03;22.05;;;13.65;;
59512;SDS011;45330;51.634;5.562;2023-05-10T15:08:29;21.15;;;12.93;;